Time,TemperatureF,DewpointF,PressureIn,WindDirection,WindDirectionDegrees,WindSpeedMPH,WindSpeedGustMPH,Humidity,HourlyPrecipIn,Conditions,Clouds,dailyrainin,SoftwareType,DateUTC
2013-09-21 10:01:00,86.2,85.8,29.81,NW,315,2.0,4.0,99,0.01,,,0.05,meteohub,2013-09-21 14:01:00,
2013-09-21 10:02:00,86.0,85.6,29.81,South,180,1.0,4.0,99,0.01,,,0.05,meteohub,2013-09-21 14:02:00,
2013-09-21 10:03:00,86.4,86.0,29.81,West,270,3.0,4.0,99,0.01,,,0.05,meteohub,2013-09-21 14:03:00,
2013-09-21 10:04:00,86.5,86.2,29.81,West,270,2.0,4.0,99,0.01,,,0.05,meteohub,2013-09-21 14:04:00,
2013-09-21 10:09:00,86.4,86.0,29.81,West,270,2.0,5.0,99,0.01,,,0.05,meteohub,2013-09-21 14:09:00,
2013-09-21 10:14:00,86.0,85.1,29.81,West,270,7.0,7.0,97,0.01,,,0.05,meteohub,2013-09-21 14:14:00,
2013-09-21 10:19:00,84.7,84.4,29.81,West,270,6.0,7.0,99,0.01,,,0.05,meteohub,2013-09-21 14:19:00,
2013-09-21 10:24:00,84.0,83.7,29.81,West,270,6.0,9.0,99,0.01,,,0.05,meteohub,2013-09-21 14:24:00,
2013-09-21 10:29:00,84.6,84.2,29.81,West,270,4.0,9.0,99,0.01,,,0.05,meteohub,2013-09-21 14:29:00,
2013-09-21 10:34:00,85.3,84.9,29.80,West,270,4.0,9.0,99,0.01,,,0.05,meteohub,2013-09-21 14:34:00,
2013-09-21 10:39:00,86.2,85.5,29.80,West,270,4.0,7.0,98,0.00,,,0.05,meteohub,2013-09-21 14:39:00,
2013-09-21 10:44:00,86.4,85.1,29.80,WSW,248,4.0,6.0,96,0.00,,,0.05,meteohub,2013-09-21 14:44:00,
2013-09-21 10:50:00,86.4,84.7,29.80,NW,315,7.0,7.0,95,0.00,,,0.05,meteohub,2013-09-21 14:50:00,
2013-09-21 10:55:00,86.5,84.9,29.80,West,270,7.0,7.0,95,0.00,,,0.05,meteohub,2013-09-21 14:55:00,
2013-09-21 11:00:00,86.7,85.1,29.80,WNW,293,4.0,8.0,95,0.00,,,0.05,meteohub,2013-09-21 15:00:00,
2013-09-21 11:05:00,86.9,84.6,29.80,West,270,2.0,8.0,93,0.00,,,0.05,meteohub,2013-09-21 15:05:00,
2013-09-21 11:10:00,86.4,84.7,29.80,SW,225,4.0,7.0,95,0.00,,,0.05,meteohub,2013-09-21 15:10:00,
2013-09-21 11:15:00,86.4,84.7,29.80,West,270,4.0,7.0,95,0.00,,,0.05,meteohub,2013-09-21 15:15:00,
2013-09-21 11:20:00,86.0,84.4,29.80,SW,225,5.0,5.0,95,0.00,,,0.05,meteohub,2013-09-21 15:20:00,
2013-09-21 11:25:00,85.5,83.1,29.80,West,270,5.0,6.0,93,0.00,,,0.05,meteohub,2013-09-21 15:25:00,
2013-09-21 11:30:00,85.5,83.5,29.80,NW,315,4.0,8.0,94,0.00,,,0.05,meteohub,2013-09-21 15:30:00,
2013-09-21 11:35:00,85.3,82.9,29.80,West,270,6.0,8.0,93,0.00,,,0.05,meteohub,2013-09-21 15:35:00,
2013-09-21 11:40:00,85.5,83.1,29.80,West,270,9.0,9.0,93,0.00,,,0.05,meteohub,2013-09-21 15:40:00,
2013-09-21 11:45:00,85.8,83.5,29.79,WSW,248,4.0,9.0,93,0.00,,,0.05,meteohub,2013-09-21 15:45:00,
2013-09-21 11:50:00,86.7,83.1,29.80,West,270,7.0,9.0,89,0.00,,,0.05,meteohub,2013-09-21 15:50:00,
2013-09-21 11:55:00,86.7,83.1,29.79,West,270,7.0,10.0,89,0.00,,,0.05,meteohub,2013-09-21 15:55:00,
2013-09-21 12:00:00,86.2,83.7,29.79,NW,315,4.0,10.0,92,0.00,,,0.05,meteohub,2013-09-21 16:00:00,
2013-09-21 12:05:00,85.6,82.8,29.79,West,270,2.0,10.0,91,0.00,,,0.05,meteohub,2013-09-21 16:05:00,
2013-09-21 12:11:00,86.7,84.7,29.78,West,270,4.0,8.0,94,0.00,,,0.05,meteohub,2013-09-21 16:11:00,
2013-09-21 12:16:00,88.0,84.0,29.78,NW,315,4.0,8.0,88,0.00,,,0.05,meteohub,2013-09-21 16:16:00,
2013-09-21 12:21:00,88.0,83.3,29.78,West,270,7.0,8.0,86,0.00,,,0.05,meteohub,2013-09-21 16:21:00,
2013-09-21 12:26:00,88.5,83.5,29.78,East,90,5.0,8.0,85,0.00,,,0.05,meteohub,2013-09-21 16:26:00,
2013-09-21 12:31:00,88.0,82.9,29.78,SW,225,4.0,8.0,85,0.00,,,0.05,meteohub,2013-09-21 16:31:00,
2013-09-21 12:36:00,87.8,83.8,29.78,West,270,5.0,7.0,88,0.00,,,0.05,meteohub,2013-09-21 16:36:00,
2013-09-21 12:41:00,88.9,84.2,29.77,NW,315,5.0,6.0,86,0.00,,,0.05,meteohub,2013-09-21 16:41:00,
2013-09-21 12:46:00,89.2,83.8,29.77,West,270,3.0,6.0,84,0.00,,,0.05,meteohub,2013-09-21 16:46:00,
2013-09-21 12:51:00,89.6,84.2,29.77,West,270,9.0,9.0,84,0.00,,,0.05,meteohub,2013-09-21 16:51:00,
2013-09-21 12:56:00,89.2,83.8,29.77,South,180,3.0,12.0,84,0.00,,,0.05,meteohub,2013-09-21 16:56:00,
2013-09-21 13:01:00,89.2,84.6,29.77,North,0,3.0,12.0,86,0.00,,,0.05,meteohub,2013-09-21 17:01:00,
2013-09-21 13:06:00,89.2,82.6,29.75,NE,45,4.0,12.0,81,0.00,,,0.05,meteohub,2013-09-21 17:06:00,
2013-09-21 13:11:00,88.7,83.3,29.76,West,270,5.0,8.0,84,0.00,,,0.05,meteohub,2013-09-21 17:11:00,
2013-09-21 13:16:00,89.6,83.3,29.75,West,270,3.0,8.0,82,0.00,,,0.05,meteohub,2013-09-21 17:16:00,
2013-09-21 13:22:00,90.7,84.0,29.75,NW,315,7.0,8.0,81,0.00,,,0.05,meteohub,2013-09-21 17:22:00,
2013-09-21 13:27:00,91.0,83.3,29.75,West,270,7.0,9.0,78,0.00,,,0.05,meteohub,2013-09-21 17:27:00,
2013-09-21 13:32:00,89.6,83.7,29.75,NW,315,7.0,9.0,83,0.00,,,0.05,meteohub,2013-09-21 17:32:00,
2013-09-21 13:37:00,90.5,84.9,29.74,WNW,293,5.0,9.0,84,0.00,,,0.05,meteohub,2013-09-21 17:37:00,
2013-09-21 13:42:00,89.1,83.7,29.74,NW,315,4.0,7.0,84,0.00,,,0.05,meteohub,2013-09-21 17:42:00,
2013-09-21 13:47:00,89.8,83.1,29.74,NW,315,7.0,8.0,81,0.00,,,0.05,meteohub,2013-09-21 17:47:00,
2013-09-21 13:52:00,91.0,83.3,29.73,SW,225,4.0,8.0,78,0.00,,,0.05,meteohub,2013-09-21 17:52:00,
2013-09-21 13:57:00,91.4,83.5,29.73,West,270,8.0,9.0,78,0.00,,,0.05,meteohub,2013-09-21 17:57:00,
2013-09-21 14:02:00,90.1,83.8,29.73,West,270,4.0,9.0,82,0.00,,,0.05,meteohub,2013-09-21 18:02:00,
2013-09-21 14:07:00,90.9,83.1,29.73,NW,315,6.0,8.0,78,0.00,,,0.05,meteohub,2013-09-21 18:07:00,
2013-09-21 14:12:00,90.0,82.9,29.72,NW,315,6.0,9.0,80,0.00,,,0.05,meteohub,2013-09-21 18:12:00,
2013-09-21 14:17:00,89.4,83.5,29.72,West,270,7.0,10.0,83,0.00,,,0.05,meteohub,2013-09-21 18:17:00,
2013-09-21 14:22:00,89.6,83.7,29.72,SW,225,4.0,11.0,83,0.00,,,0.05,meteohub,2013-09-21 18:22:00,
2013-09-21 14:27:00,90.1,83.5,29.71,SW,225,8.0,11.0,81,0.00,,,0.05,meteohub,2013-09-21 18:27:00,
2013-09-21 14:32:00,89.8,82.8,29.71,West,270,5.0,11.0,80,0.00,,,0.05,meteohub,2013-09-21 18:32:00,
2013-09-21 14:37:00,89.8,82.8,29.71,West,270,4.0,9.0,80,0.00,,,0.05,meteohub,2013-09-21 18:37:00,
2013-09-21 14:42:00,89.8,83.1,29.71,West,270,6.0,9.0,81,0.00,,,0.05,meteohub,2013-09-21 18:42:00,
2013-09-21 14:47:00,90.0,83.3,29.70,NW,315,7.0,8.0,81,0.00,,,0.05,meteohub,2013-09-21 18:47:00,
2013-09-21 14:52:00,90.3,83.3,29.70,West,270,4.0,8.0,80,0.00,,,0.05,meteohub,2013-09-21 18:52:00,
2013-09-21 14:57:00,90.3,84.0,29.70,West,270,4.0,8.0,82,0.00,,,0.05,meteohub,2013-09-21 18:57:00,
2013-09-21 15:02:00,90.9,83.1,29.70,West,270,5.0,8.0,78,0.00,,,0.05,meteohub,2013-09-21 19:02:00,
2013-09-21 15:07:00,90.5,83.5,29.70,SW,225,3.0,8.0,80,0.00,,,0.05,meteohub,2013-09-21 19:07:00,
2013-09-21 15:13:00,90.5,83.5,29.70,WSW,248,4.0,11.0,80,0.00,,,0.05,meteohub,2013-09-21 19:13:00,
2013-09-21 15:18:00,90.0,82.9,29.70,West,270,3.0,11.0,80,0.00,,,0.05,meteohub,2013-09-21 19:18:00,
2013-09-21 15:23:00,89.8,83.5,29.70,NW,315,2.0,11.0,82,0.00,,,0.05,meteohub,2013-09-21 19:23:00,
2013-09-21 15:28:00,89.4,84.0,29.70,West,270,5.0,5.0,84,0.00,,,0.05,meteohub,2013-09-21 19:28:00,
2013-09-21 15:33:00,88.9,83.1,29.69,North,0,4.0,6.0,83,0.00,,,0.05,meteohub,2013-09-21 19:33:00,
2013-09-21 15:38:00,89.1,84.0,29.69,NE,45,2.0,7.0,85,0.00,,,0.05,meteohub,2013-09-21 19:38:00,
2013-09-21 15:43:00,88.7,83.7,29.69,SW,225,5.0,7.0,85,0.00,,,0.05,meteohub,2013-09-21 19:43:00,
2013-09-21 15:48:00,88.7,84.0,29.68,West,270,2.0,5.0,86,0.00,,,0.05,meteohub,2013-09-21 19:48:00,
2013-09-21 15:53:00,88.9,84.2,29.68,SE,135,3.0,5.0,86,0.00,,,0.05,meteohub,2013-09-21 19:53:00,
2013-09-21 15:59:00,88.0,84.7,29.68,North,0,4.0,5.0,90,0.00,,,0.05,meteohub,2013-09-21 19:59:00,
2013-09-21 16:04:00,87.4,84.7,29.69,NW,315,2.0,6.0,92,0.00,,,0.05,meteohub,2013-09-21 20:04:00,
2013-09-21 16:09:00,86.9,84.6,29.68,SE,135,7.0,7.0,93,0.00,,,0.05,meteohub,2013-09-21 20:09:00,
2013-09-21 16:14:00,86.7,84.7,29.68,South,180,2.0,6.0,94,0.00,,,0.05,meteohub,2013-09-21 20:14:00,
2013-09-21 16:19:00,86.9,85.3,29.68,West,270,3.0,7.0,95,0.00,,,0.05,meteohub,2013-09-21 20:19:00,
2013-09-21 16:24:00,86.9,84.9,29.68,South,180,2.0,7.0,94,0.00,,,0.05,meteohub,2013-09-21 20:24:00,
2013-09-21 16:29:00,87.1,85.1,29.68,SW,225,3.0,5.0,94,0.00,,,0.05,meteohub,2013-09-21 20:29:00,
2013-09-21 16:34:00,87.1,85.5,29.67,SW,225,3.0,5.0,95,0.00,,,0.05,meteohub,2013-09-21 20:34:00,
2013-09-21 16:39:00,86.7,85.1,29.67,West,270,2.0,4.0,95,0.00,,,0.05,meteohub,2013-09-21 20:39:00,
2013-09-21 16:44:00,86.2,84.9,29.67,SE,135,3.0,4.0,96,0.00,,,0.05,meteohub,2013-09-21 20:44:00,
2013-09-21 16:49:00,85.8,85.1,29.67,West,270,3.0,5.0,98,0.00,,,0.05,meteohub,2013-09-21 20:49:00,
2013-09-21 16:55:00,85.3,84.6,29.67,West,270,9.0,9.0,98,0.00,,,0.05,meteohub,2013-09-21 20:55:00,
2013-09-21 17:00:00,85.3,84.9,29.67,North,0,4.0,8.0,99,0.00,,,0.05,meteohub,2013-09-21 21:00:00,
2013-09-21 17:05:00,85.1,84.7,29.66,West,270,2.0,9.0,99,0.00,,,0.05,meteohub,2013-09-21 21:05:00,
2013-09-21 17:10:00,84.7,84.4,29.67,SW,225,2.0,5.0,99,0.00,,,0.05,meteohub,2013-09-21 21:10:00,
2013-09-21 17:15:00,84.6,84.2,29.66,North,0,4.0,5.0,99,0.00,,,0.05,meteohub,2013-09-21 21:15:00,
2013-09-21 17:20:00,84.7,84.4,29.66,SE,135,3.0,5.0,99,0.00,,,0.05,meteohub,2013-09-21 21:20:00,
2013-09-21 17:25:00,84.7,84.4,29.67,East,90,2.0,4.0,99,0.00,,,0.05,meteohub,2013-09-21 21:25:00,
2013-09-21 17:30:00,84.7,84.4,29.67,NE,45,2.0,4.0,99,0.00,,,0.05,meteohub,2013-09-21 21:30:00,
2013-09-21 17:35:00,84.4,84.0,29.66,North,0,3.0,4.0,99,0.00,,,0.05,meteohub,2013-09-21 21:35:00,
2013-09-21 17:40:00,83.8,83.5,29.66,South,180,2.0,4.0,99,0.00,,,0.05,meteohub,2013-09-21 21:40:00,
2013-09-21 17:46:00,83.5,83.1,29.66,South,180,1.0,4.0,99,0.00,,,0.05,meteohub,2013-09-21 21:46:00,
2013-09-21 17:51:00,83.1,82.8,29.67,SW,225,5.0,5.0,99,0.00,,,0.05,meteohub,2013-09-21 21:51:00,
2013-09-21 17:56:00,82.6,82.2,29.66,East,90,2.0,5.0,99,0.00,,,0.05,meteohub,2013-09-21 21:56:00,
2013-09-21 18:01:00,82.2,81.9,29.66,SE,135,2.0,5.0,99,0.00,,,0.05,meteohub,2013-09-21 22:01:00,
2013-09-21 18:06:00,81.7,81.3,29.66,SW,225,2.0,5.0,99,0.00,,,0.05,meteohub,2013-09-21 22:06:00,
2013-09-21 18:11:00,81.5,81.1,29.66,NNW,338,4.0,4.0,99,0.00,,,0.05,meteohub,2013-09-21 22:11:00,
2013-09-21 18:16:00,81.1,80.8,29.66,NW,315,2.0,4.0,99,0.00,,,0.05,meteohub,2013-09-21 22:16:00,
2013-09-21 18:21:00,80.8,80.4,29.66,East,90,2.0,4.0,99,0.00,,,0.05,meteohub,2013-09-21 22:21:00,
2013-09-21 18:26:00,80.4,80.1,29.66,North,0,2.0,4.0,99,0.00,,,0.05,meteohub,2013-09-21 22:26:00,
2013-09-21 18:31:00,80.2,79.9,29.66,South,180,4.0,4.0,99,0.00,,,0.05,meteohub,2013-09-21 22:31:00,
2013-09-21 18:37:00,80.1,79.7,29.66,East,90,4.0,4.0,99,0.00,,,0.05,meteohub,2013-09-21 22:37:00,
2013-09-21 18:42:00,79.9,79.5,29.66,NW,315,1.0,4.0,99,0.00,,,0.05,meteohub,2013-09-21 22:42:00,
2013-09-21 18:47:00,79.5,79.2,29.66,SE,135,3.0,4.0,99,0.00,,,0.05,meteohub,2013-09-21 22:47:00,
2013-09-21 18:52:00,79.5,79.2,29.66,NE,45,2.0,4.0,99,0.00,,,0.05,meteohub,2013-09-21 22:52:00,
2013-09-21 18:57:00,79.3,79.0,29.66,West,270,2.0,4.0,99,0.00,,,0.05,meteohub,2013-09-21 22:57:00,
2013-09-21 19:02:00,79.2,78.8,29.66,West,270,1.0,4.0,99,0.00,,,0.05,meteohub,2013-09-21 23:02:00,
2013-09-21 19:07:00,79.0,78.6,29.66,NNW,338,2.0,4.0,99,0.00,,,0.05,meteohub,2013-09-21 23:07:00,
2013-09-21 19:12:00,78.8,78.4,29.66,East,90,2.0,4.0,99,0.00,,,0.05,meteohub,2013-09-21 23:12:00,
2013-09-21 19:17:00,78.6,78.3,29.66,SW,225,2.0,4.0,99,0.00,,,0.05,meteohub,2013-09-21 23:17:00,
2013-09-21 19:22:00,78.4,78.1,29.66,West,270,0.0,3.0,99,0.00,,,0.05,meteohub,2013-09-21 23:22:00,
2013-09-21 19:27:00,78.4,78.1,29.66,SW,225,2.0,3.0,99,0.00,,,0.05,meteohub,2013-09-21 23:27:00,
2013-09-21 19:32:00,78.3,77.9,29.66,SW,225,4.0,4.0,99,0.00,,,0.05,meteohub,2013-09-21 23:32:00,
2013-09-21 19:37:00,78.3,77.9,29.66,SW,225,2.0,4.0,99,0.00,,,0.05,meteohub,2013-09-21 23:37:00,
2013-09-21 19:42:00,78.3,77.9,29.67,NW,315,2.0,4.0,99,0.00,,,0.05,meteohub,2013-09-21 23:42:00,
2013-09-21 19:47:00,78.1,77.7,29.66,NE,45,2.0,4.0,99,0.00,,,0.05,meteohub,2013-09-21 23:47:00,
2013-09-21 19:52:00,78.1,77.7,29.66,West,270,2.0,2.0,99,0.00,,,0.05,meteohub,2013-09-21 23:52:00,
2013-09-21 19:58:00,78.1,77.7,29.66,West,270,1.0,4.0,99,0.00,,,0.05,meteohub,2013-09-21 23:58:00,
2013-09-21 20:03:00,77.9,77.5,29.66,SW,225,1.0,4.0,99,0.00,,,0.05,meteohub,2013-09-22 00:03:00,
2013-09-21 20:08:00,77.9,77.5,29.66,West,270,0.0,4.0,99,0.00,,,0.05,meteohub,2013-09-22 00:08:00,
2013-09-21 20:13:00,77.7,77.4,29.67,SW,225,1.0,3.0,99,0.00,,,0.05,meteohub,2013-09-22 00:13:00,
2013-09-21 20:18:00,77.7,77.4,29.67,SW,225,0.0,3.0,99,0.00,,,0.05,meteohub,2013-09-22 00:18:00,
2013-09-21 20:23:00,77.7,77.4,29.66,SE,135,1.0,2.0,99,0.00,,,0.05,meteohub,2013-09-22 00:23:00,
2013-09-21 20:28:00,77.7,77.4,29.66,West,270,2.0,3.0,99,0.00,,,0.05,meteohub,2013-09-22 00:28:00,
2013-09-21 20:34:00,77.5,77.2,29.66,SW,225,2.0,3.0,99,0.00,,,0.05,meteohub,2013-09-22 00:34:00,
2013-09-21 20:39:00,77.5,77.2,29.66,West,270,1.0,3.0,99,0.00,,,0.05,meteohub,2013-09-22 00:39:00,
2013-09-21 20:44:00,77.5,77.2,29.66,West,270,0.0,2.0,99,0.00,,,0.05,meteohub,2013-09-22 00:44:00,
2013-09-21 20:49:00,77.5,77.2,29.66,SW,225,2.0,2.0,99,0.00,,,0.05,meteohub,2013-09-22 00:49:00,
2013-09-21 20:54:00,77.4,77.0,29.67,South,180,0.0,2.0,99,0.00,,,0.05,meteohub,2013-09-22 00:54:00,
2013-09-21 20:59:00,77.4,77.0,29.67,South,180,2.0,2.0,99,0.00,,,0.05,meteohub,2013-09-22 00:59:00,
2013-09-21 21:04:00,77.4,77.0,29.67,SW,225,2.0,2.0,99,0.00,,,0.05,meteohub,2013-09-22 01:04:00,
2013-09-21 21:09:00,77.4,77.0,29.67,SW,225,2.0,2.0,99,0.00,,,0.05,meteohub,2013-09-22 01:09:00,
2013-09-21 21:14:00,77.2,76.8,29.67,South,180,1.0,3.0,99,0.00,,,0.05,meteohub,2013-09-22 01:14:00,
2013-09-21 21:20:00,77.2,76.8,29.67,NW,315,2.0,3.0,99,0.00,,,0.05,meteohub,2013-09-22 01:20:00,
2013-09-21 21:25:00,77.2,76.8,29.67,South,180,2.0,3.0,99,0.00,,,0.05,meteohub,2013-09-22 01:25:00,
2013-09-21 21:30:00,76.8,76.5,29.68,SW,225,2.0,2.0,99,0.00,,,0.05,meteohub,2013-09-22 01:30:00,
2013-09-21 21:35:00,76.6,76.3,29.68,West,270,4.0,4.0,99,0.00,,,0.05,meteohub,2013-09-22 01:35:00,
2013-09-21 21:40:00,76.3,75.9,29.68,WNW,293,2.0,4.0,99,0.00,,,0.05,meteohub,2013-09-22 01:40:00,
2013-09-21 21:45:00,76.1,75.7,29.69,West,270,2.0,4.0,99,0.00,,,0.05,meteohub,2013-09-22 01:45:00,
2013-09-21 21:50:00,75.7,75.4,29.69,SW,225,4.0,4.0,99,0.01,,,0.06,meteohub,2013-09-22 01:50:00,
2013-09-21 21:56:00,75.6,75.2,29.69,SSW,203,5.0,5.0,99,0.01,,,0.06,meteohub,2013-09-22 01:56:00,
2013-09-21 22:01:00,75.4,75.0,29.69,West,270,4.0,5.0,99,0.02,,,0.07,meteohub,2013-09-22 02:01:00,
2013-09-21 22:06:00,75.4,75.0,29.70,West,270,5.0,6.0,99,0.06,,,0.11,meteohub,2013-09-22 02:06:00,
2013-09-21 22:11:00,75.2,74.8,29.69,West,270,5.0,6.0,99,0.09,,,0.14,meteohub,2013-09-22 02:11:00,
2013-09-21 22:16:00,75.0,74.7,29.69,West,270,6.0,11.0,99,0.15,,,0.20,meteohub,2013-09-22 02:16:00,
2013-09-21 22:21:00,74.8,74.5,29.69,NW,315,9.0,11.0,99,0.15,,,0.20,meteohub,2013-09-22 02:21:00,
2013-09-21 22:26:00,74.8,74.5,29.69,West,270,4.0,11.0,99,0.15,,,0.20,meteohub,2013-09-22 02:26:00,
2013-09-21 22:32:00,74.8,74.5,29.69,SW,225,2.0,10.0,99,0.15,,,0.20,meteohub,2013-09-22 02:32:00,
2013-09-21 22:37:00,74.5,74.1,29.68,SW,225,2.0,10.0,99,0.15,,,0.20,meteohub,2013-09-22 02:37:00,
2013-09-21 22:42:00,74.5,74.1,29.68,West,270,2.0,4.0,99,0.15,,,0.20,meteohub,2013-09-22 02:42:00,
2013-09-21 22:47:00,74.5,74.1,29.68,West,270,2.0,4.0,99,0.15,,,0.20,meteohub,2013-09-22 02:47:00,
2013-09-21 22:52:00,74.5,74.1,29.68,West,270,2.0,3.0,99,0.14,,,0.20,meteohub,2013-09-22 02:52:00,
2013-09-21 22:57:00,74.5,74.1,29.68,SW,225,2.0,3.0,99,0.14,,,0.20,meteohub,2013-09-22 02:57:00,
2013-09-21 23:02:00,74.3,73.9,29.68,West,270,3.0,3.0,99,0.13,,,0.20,meteohub,2013-09-22 03:02:00,
2013-09-21 23:07:00,74.3,73.9,29.68,West,270,2.0,3.0,99,0.08,,,0.20,meteohub,2013-09-22 03:07:00,
2013-09-21 23:12:00,74.3,73.9,29.68,West,270,2.0,3.0,99,0.02,,,0.20,meteohub,2013-09-22 03:12:00,
2013-09-21 23:17:00,74.3,73.9,29.68,NW,315,1.0,3.0,99,0.00,,,0.20,meteohub,2013-09-22 03:17:00,
2013-09-21 23:23:00,74.3,73.9,29.67,West,270,4.0,4.0,99,0.00,,,0.20,meteohub,2013-09-22 03:23:00,
2013-09-21 23:28:00,74.5,74.1,29.67,West,270,3.0,4.0,99,0.01,,,0.21,meteohub,2013-09-22 03:28:00,
2013-09-21 23:33:00,74.3,73.9,29.68,SW,225,3.0,4.0,99,0.01,,,0.21,meteohub,2013-09-22 03:33:00,
2013-09-21 23:38:00,74.5,74.1,29.67,West,270,2.0,5.0,99,0.01,,,0.21,meteohub,2013-09-22 03:38:00,
2013-09-21 23:43:00,74.5,74.1,29.67,West,270,4.0,5.0,99,0.01,,,0.21,meteohub,2013-09-22 03:43:00,
2013-09-21 23:48:00,74.5,74.1,29.67,WSW,248,4.0,5.0,99,0.01,,,0.21,meteohub,2013-09-22 03:48:00,
2013-09-21 23:53:00,74.5,74.1,29.67,SW,225,2.0,6.0,99,0.01,,,0.21,meteohub,2013-09-22 03:53:00,
2013-09-21 23:58:00,74.5,74.1,29.67,WSW,248,2.0,6.0,99,0.01,,,0.21,meteohub,2013-09-22 03:58:00,